MUVR/VRA METAR and TAF weather

Enter ICAO airport designator
Station Type Date Time Source
MUVR METAR 2019/10/19 06:50 UTC NOAA

MUVR 190650Z 15005KT 130V190 9000 FEW030 25/24 Q1011


Station Type Date Time Source
MUVR Decoded METAR 2019/10/19 06:50 UTC NOAA

Varadero, Matanzas, Cuba (MUVR) 23-08N 081-17W 3M
Oct 19, 2019 - 02:50 AM EDT / 2019.10.19 0650 UTC
Wind: from the SSE (150 degrees) at 6 MPH (5 KT) (direction variable):0
Visibility: 5 mile(s):0
Sky conditions: mostly clear
Temperature: 77 F (25 C)
Dew Point: 75 F (24 C)
Relative Humidity: 94%
Pressure (altimeter): 29.85 in. Hg (1011 hPa)
ob: MUVR 190650Z 15005KT 130V190 9000 FEW030 25/24 Q1011
cycle: 7

Station Type Date Time Source
MUVR TAF 2019/10/19 06:03 UTC NOAA

TAF MUVR 190500Z 1906/2006 17008KT 9000 FEW020

Example: see airport list